createdAt,value
2019-03-12T00:00:18.793Z,2.62
2019-03-12T00:02:47.331Z,2.35
2019-03-12T00:05:15.769Z,3.12
2019-03-12T00:07:44.290Z,2.05
2019-03-12T00:10:12.742Z,1.87
2019-03-12T00:12:41.206Z,1.30
2019-03-12T00:15:09.643Z,2.25
2019-03-12T00:17:38.209Z,0.40
2019-03-12T00:20:08.098Z,3.75
2019-03-12T00:22:36.639Z,1.85
2019-03-12T00:25:05.078Z,1.00
2019-03-12T00:27:33.516Z,1.82
2019-03-12T00:30:01.976Z,1.40
2019-03-12T00:32:30.424Z,2.67
2019-03-12T00:34:58.874Z,1.80
2019-03-12T00:37:27.318Z,5.05
2019-03-12T00:39:55.798Z,1.70
2019-03-12T00:42:24.230Z,2.30
2019-03-12T00:44:52.672Z,1.55
2019-03-12T00:47:21.123Z,1.47
2019-03-12T00:49:49.707Z,0.88
2019-03-12T00:52:18.153Z,2.47
2019-03-12T00:54:46.586Z,6.10
2019-03-12T00:57:15.065Z,3.22
2019-03-12T00:59:43.475Z,1.62
2019-03-12T01:02:11.927Z,2.87
2019-03-12T01:04:40.371Z,2.85
2019-03-12T01:07:08.824Z,2.62
2019-03-12T01:09:37.266Z,3.45
2019-03-12T01:12:05.722Z,2.55
2019-03-12T01:14:34.162Z,2.33
2019-03-12T01:17:02.611Z,1.25
2019-03-12T01:19:31.066Z,2.95
2019-03-12T01:21:59.508Z,2.25
2019-03-12T01:24:27.950Z,1.42
2019-03-12T01:26:56.444Z,1.27
2019-03-12T01:29:24.885Z,2.67
2019-03-12T01:31:53.337Z,4.65
2019-03-12T01:34:21.778Z,2.37
2019-03-12T01:36:50.213Z,2.05
2019-03-12T01:39:18.688Z,1.02
2019-03-12T01:41:47.125Z,1.82
2019-03-12T01:44:15.577Z,3.35
2019-03-12T01:46:44.034Z,2.05
2019-03-12T01:49:12.512Z,1.00
2019-03-12T01:51:40.941Z,2.60
2019-03-12T01:54:09.390Z,2.35
2019-03-12T01:56:37.924Z,1.57
2019-03-12T01:59:06.402Z,2.12
2019-03-12T02:01:34.826Z,2.22
2019-03-12T02:04:03.262Z,1.62
2019-03-12T02:06:31.711Z,2.90
2019-03-12T02:09:00.157Z,1.52
2019-03-12T02:11:28.889Z,2.17
2019-03-12T02:13:57.354Z,5.97
2019-03-12T02:16:25.851Z,3.87
2019-03-12T02:18:54.297Z,2.25
2019-03-12T02:21:22.743Z,1.20
2019-03-12T02:23:51.226Z,0.85
2019-03-12T02:26:19.676Z,2.22
2019-03-12T02:28:48.142Z,3.95
2019-03-12T02:31:16.565Z,1.87
2019-03-12T02:33:45.044Z,1.95
2019-03-12T02:36:13.493Z,4.47
2019-03-12T02:38:41.946Z,2.15
2019-03-12T02:41:10.432Z,3.08
2019-03-12T02:43:38.848Z,4.05
2019-03-12T02:46:07.307Z,4.45
2019-03-12T02:48:35.743Z,4.58
2019-03-12T02:51:04.243Z,4.03
2019-03-12T02:53:32.852Z,2.92
2019-03-12T02:56:01.991Z,2.43
2019-03-12T02:58:30.716Z,5.03
2019-03-12T03:00:59.138Z,2.08
2019-03-12T03:03:27.592Z,3.77
2019-03-12T03:06:00.515Z,2.80
2019-03-12T03:08:30.621Z,5.05
2019-03-12T03:10:59.098Z,3.17
2019-03-12T03:13:27.543Z,5.37
2019-03-12T03:15:56.060Z,4.83
2019-03-12T03:18:24.534Z,4.15
2019-03-12T03:20:53.138Z,6.90
2019-03-12T03:23:21.603Z,2.90
2019-03-12T03:25:50.032Z,3.05
2019-03-12T03:28:18.513Z,2.37
2019-03-12T03:30:46.946Z,3.35
2019-03-12T03:33:15.386Z,2.37
2019-03-12T03:35:43.843Z,2.22
2019-03-12T03:38:12.288Z,1.82
2019-03-12T03:40:40.753Z,1.98
2019-03-12T03:43:09.201Z,1.90
2019-03-12T03:45:37.653Z,6.10
2019-03-12T03:48:06.101Z,1.62
2019-03-12T03:50:34.588Z,3.15
2019-03-12T03:53:03.036Z,5.12
2019-03-12T03:55:31.476Z,2.47
2019-03-12T03:57:59.932Z,1.30
2019-03-12T04:00:28.399Z,4.78
2019-03-12T04:02:56.864Z,1.02
2019-03-12T04:05:25.302Z,2.70
2019-03-12T04:07:53.868Z,1.45
2019-03-12T04:10:22.314Z,2.33
2019-03-12T04:12:50.759Z,2.00
2019-03-12T04:15:19.531Z,1.90
2019-03-12T04:17:48.025Z,1.00
2019-03-12T04:20:17.317Z,6.60
2019-03-12T04:22:45.759Z,2.47
2019-03-12T04:25:14.195Z,2.08
2019-03-12T04:27:42.634Z,1.92
2019-03-12T04:30:13.970Z,4.17
2019-03-12T04:32:42.422Z,1.60
2019-03-12T04:35:19.710Z,2.70
2019-03-12T04:37:48.157Z,1.70
2019-03-12T04:40:16.664Z,4.55
2019-03-12T04:42:45.155Z,2.05
2019-03-12T04:45:15.636Z,2.37
2019-03-12T04:47:44.099Z,4.80
2019-03-12T04:50:12.524Z,3.22
2019-03-12T04:52:40.988Z,2.80
2019-03-12T04:55:11.860Z,5.55
2019-03-12T04:57:40.343Z,6.53
2019-03-12T05:00:22.269Z,3.72
2019-03-12T05:02:50.738Z,5.95
2019-03-12T05:05:19.152Z,2.72
2019-03-12T05:07:47.614Z,8.48
2019-03-12T05:10:16.535Z,4.67
2019-03-12T05:12:44.938Z,6.67
2019-03-12T05:15:16.093Z,5.47
2019-03-12T05:17:45.273Z,5.70
2019-03-12T05:20:14.683Z,16.10
2019-03-12T05:22:43.121Z,4.72
2019-03-12T05:25:13.236Z,6.25
2019-03-12T05:27:41.689Z,12.68
2019-03-12T05:30:16.292Z,13.53
2019-03-12T05:32:44.739Z,3.05
2019-03-12T05:35:13.266Z,3.67
2019-03-12T05:37:41.712Z,5.80
2019-03-12T05:40:14.348Z,5.05
2019-03-12T05:42:42.772Z,3.15
2019-03-12T05:45:13.426Z,5.00
2019-03-12T05:47:41.940Z,6.25
2019-03-12T05:50:12.312Z,6.58
2019-03-12T05:52:40.799Z,2.52
2019-03-12T05:55:10.590Z,6.03
2019-03-12T05:57:39.050Z,3.35
2019-03-12T06:00:15.685Z,4.90
2019-03-12T06:02:44.127Z,8.35
2019-03-12T06:05:12.585Z,18.35
2019-03-12T06:07:41.030Z,16.25
2019-03-12T06:10:12.738Z,11.03
2019-03-12T06:12:41.188Z,6.30
2019-03-12T06:15:14.872Z,8.98
2019-03-12T06:17:43.311Z,7.97
2019-03-12T06:20:13.015Z,8.10
2019-03-12T06:22:41.460Z,13.68
2019-03-12T06:25:09.938Z,16.48
2019-03-12T06:27:38.359Z,8.60
2019-03-12T06:30:14.828Z,9.33
2019-03-12T06:32:53.632Z,4.33
2019-03-12T06:35:41.695Z,5.95
2019-03-12T06:38:17.463Z,5.30
2019-03-12T06:40:50.334Z,5.70
2019-03-12T06:43:20.539Z,12.80
2019-03-12T06:45:59.361Z,5.45
2019-03-12T06:48:29.485Z,10.75
2019-03-12T06:50:59.618Z,10.03
2019-03-12T06:53:38.440Z,7.65
2019-03-12T06:56:24.643Z,7.47
2019-03-12T06:59:03.415Z,4.20
2019-03-12T07:01:49.522Z,8.38
2019-03-12T07:04:19.611Z,7.03
2019-03-12T07:06:52.509Z,7.65
2019-03-12T07:09:25.531Z,5.80
2019-03-12T07:11:55.621Z,4.27
2019-03-12T07:14:43.656Z,7.03
2019-03-12T07:17:19.466Z,6.92
2019-03-12T07:19:58.330Z,9.68
2019-03-12T07:22:28.430Z,9.18
2019-03-12T07:25:04.608Z,8.70
2019-03-12T07:27:43.472Z,4.62
2019-03-12T07:30:16.383Z,5.45
2019-03-12T07:32:46.484Z,3.25
2019-03-12T07:35:31.435Z,3.50
2019-03-12T07:38:07.375Z,2.25
2019-03-12T07:40:43.246Z,3.12
2019-03-12T07:43:13.356Z,1.98
2019-03-12T07:45:52.258Z,3.27
2019-03-12T07:48:34.295Z,1.75
2019-03-12T07:51:10.296Z,1.02
2019-03-12T07:53:59.670Z,3.77
2019-03-12T07:56:29.406Z,6.72
2019-03-12T07:58:59.543Z,3.60
2019-03-12T08:01:41.356Z,2.65
2019-03-12T08:04:22.898Z,2.30
2019-03-12T08:06:53.002Z,2.55
2019-03-12T08:09:25.908Z,4.35
2019-03-12T08:12:01.915Z,4.25
2019-03-12T08:14:49.925Z,2.60
2019-03-12T08:17:22.786Z,3.20
2019-03-12T08:20:01.718Z,4.10
2019-03-12T08:22:37.405Z,1.05
2019-03-12T08:25:14.835Z,2.65
2019-03-12T08:27:44.948Z,1.25
2019-03-12T08:30:15.059Z,1.95
2019-03-12T08:32:57.019Z,3.10
2019-03-12T08:35:27.178Z,1.20
2019-03-12T08:38:15.187Z,1.00
2019-03-12T08:40:52.482Z,1.07
2019-03-12T08:43:25.947Z,2.62
2019-03-12T08:46:01.981Z,4.62
2019-03-12T08:48:32.082Z,3.00
2019-03-12T08:51:16.985Z,12.88
2019-03-12T08:53:52.974Z,1.87
2019-03-12T08:56:23.043Z,0.70
2019-03-12T08:59:08.089Z,6.53
2019-03-12T09:01:47.305Z,4.92
2019-03-12T09:04:18.604Z,1.32
2019-03-12T09:06:48.659Z,0.72
2019-03-12T09:09:34.775Z,6.65
2019-03-12T09:12:04.864Z,5.55
2019-03-12T09:14:49.847Z,3.20
2019-03-12T09:17:22.661Z,1.17
2019-03-12T09:19:55.451Z,6.62
2019-03-12T09:22:40.478Z,1.37
2019-03-12T09:25:27.050Z,2.37
2019-03-12T09:28:10.531Z,0.82
2019-03-12T09:30:46.420Z,1.85
2019-03-12T09:33:19.407Z,0.57
2019-03-12T09:36:04.330Z,1.50
2019-03-12T09:38:34.433Z,1.92
2019-03-12T09:41:20.648Z,3.30
2019-03-12T09:43:56.447Z,1.82
2019-03-12T09:46:44.333Z,0.98
2019-03-12T09:49:14.410Z,1.07
2019-03-12T09:51:44.580Z,2.08
2019-03-12T09:54:20.463Z,1.55
2019-03-12T09:56:50.572Z,1.12
2019-03-12T09:59:20.644Z,1.00
2019-03-12T10:02:05.575Z,0.42
2019-03-12T10:04:38.425Z,1.52
2019-03-12T10:07:24.573Z,0.62
2019-03-12T10:09:57.337Z,1.60
2019-03-12T10:12:27.429Z,1.85
2019-03-12T10:15:00.320Z,1.65
2019-03-12T10:17:30.426Z,2.50
2019-03-12T10:20:15.257Z,3.37
2019-03-12T10:22:50.984Z,2.55
2019-03-12T10:25:37.042Z,0.80
2019-03-12T10:28:09.828Z,0.75
2019-03-12T10:30:39.911Z,0.95
2019-03-12T10:33:12.409Z,0.55
2019-03-12T10:35:57.371Z,3.12
2019-03-12T10:39:20.113Z,0.95
2019-03-12T10:41:50.182Z,2.20
2019-03-12T10:44:26.003Z,0.60
2019-03-12T10:47:01.705Z,1.50
2019-03-12T10:49:37.549Z,2.67
2019-03-12T10:52:00.267Z,4.20
2019-03-12T10:54:28.759Z,2.05
2019-03-12T10:56:57.204Z,2.37
2019-03-12T10:59:25.751Z,3.80
2019-03-12T11:01:54.197Z,2.27
2019-03-12T11:04:22.808Z,2.37
2019-03-12T11:06:51.443Z,2.15
2019-03-12T11:09:19.954Z,2.27
2019-03-12T11:11:48.426Z,3.12
2019-03-12T11:14:16.876Z,1.30
2019-03-12T11:16:45.450Z,1.80
2019-03-12T11:19:13.978Z,0.75
2019-03-12T11:21:42.486Z,5.17
2019-03-12T11:24:12.597Z,0.50
2019-03-12T11:26:41.161Z,3.98
2019-03-12T11:29:09.604Z,3.60
2019-03-12T11:31:38.052Z,0.82
2019-03-12T11:34:06.821Z,1.35
2019-03-12T11:36:35.404Z,3.00
2019-03-12T11:39:05.243Z,3.60
2019-03-12T11:41:33.733Z,0.95
2019-03-12T11:44:02.249Z,1.92
2019-03-12T11:46:41.797Z,2.65
2019-03-12T11:49:01.082Z,1.20
2019-03-12T11:51:29.569Z,2.62
2019-03-12T11:53:58.149Z,1.77
2019-03-12T11:56:26.663Z,4.15
2019-03-12T11:58:55.316Z,3.15
2019-03-12T12:01:23.859Z,10.85
2019-03-12T12:03:52.379Z,4.45
2019-03-12T12:06:20.870Z,5.25
2019-03-12T12:08:49.307Z,4.40
2019-03-12T12:11:17.810Z,1.82
2019-03-12T12:13:46.333Z,1.20
2019-03-12T12:16:14.801Z,3.00
2019-03-12T12:18:43.361Z,3.55
2019-03-12T12:21:11.797Z,2.05
2019-03-12T12:23:40.277Z,11.03
2019-03-12T12:26:08.739Z,2.47
2019-03-12T12:28:37.185Z,2.87
2019-03-12T12:31:05.633Z,2.37
2019-03-12T12:33:34.083Z,3.52
2019-03-12T12:36:04.202Z,7.47
2019-03-12T12:38:33.024Z,3.17
2019-03-12T12:41:01.475Z,1.07
2019-03-12T12:43:30.088Z,5.28
2019-03-12T12:45:58.641Z,4.42
2019-03-12T12:48:27.255Z,3.45
2019-03-12T12:51:02.991Z,4.35
2019-03-12T12:53:25.985Z,3.87
2019-03-12T12:55:54.466Z,9.05
2019-03-12T12:58:22.944Z,6.53
2019-03-12T13:00:51.493Z,3.62
2019-03-12T13:03:20.037Z,1.25
2019-03-12T13:05:50.169Z,4.22
2019-03-12T13:08:18.661Z,1.62
2019-03-12T13:10:47.376Z,2.05
2019-03-12T13:13:15.964Z,2.65
2019-03-12T13:15:44.419Z,4.28
2019-03-12T13:18:12.885Z,2.58
2019-03-12T13:20:41.333Z,5.90
2019-03-12T13:23:09.861Z,2.62
2019-03-12T13:25:38.479Z,6.40
2019-03-12T13:28:06.978Z,3.30
2019-03-12T13:30:35.560Z,3.15
2019-03-12T13:33:04.182Z,4.00
2019-03-12T13:35:34.228Z,2.12
2019-03-12T13:38:02.736Z,2.42
2019-03-12T13:40:31.409Z,1.90
2019-03-12T13:42:59.907Z,6.05
2019-03-12T13:45:30.926Z,2.85
2019-03-12T13:47:59.637Z,3.70
2019-03-12T13:50:28.122Z,3.02
2019-03-12T13:52:56.577Z,3.27
2019-03-12T13:55:25.074Z,1.67
2019-03-12T13:57:53.574Z,2.83
2019-03-12T14:00:25.970Z,0.75
2019-03-12T14:02:54.450Z,1.12
2019-03-12T14:05:23.002Z,4.35
2019-03-12T14:07:51.460Z,2.58
2019-03-12T14:10:21.802Z,2.52
2019-03-12T14:12:50.742Z,7.87
2019-03-12T14:15:24.458Z,9.90
2019-03-12T14:17:52.954Z,3.10
2019-03-12T14:20:40.381Z,6.58
2019-03-12T14:23:10.396Z,8.43
2019-03-12T14:25:38.867Z,1.80
2019-03-12T14:28:07.658Z,1.55
2019-03-12T14:30:36.146Z,5.00
2019-03-12T14:33:08.833Z,2.72
2019-03-12T14:35:37.286Z,3.13
2019-03-12T14:38:05.851Z,2.00
2019-03-12T14:40:34.504Z,5.78
2019-03-12T14:43:03.003Z,3.67
2019-03-12T14:45:31.586Z,3.85
2019-03-12T14:48:00.647Z,1.42
2019-03-12T14:50:30.790Z,4.10
2019-03-12T14:53:21.446Z,3.20
2019-03-12T14:55:41.658Z,3.33
2019-03-12T14:58:10.125Z,2.17
2019-03-12T15:00:38.571Z,1.82
2019-03-12T15:03:07.312Z,1.70
2019-03-12T15:05:35.752Z,3.08
2019-03-12T15:08:04.196Z,3.72
2019-03-12T15:10:32.647Z,2.45
2019-03-12T15:13:01.214Z,1.82
2019-03-12T15:15:29.660Z,4.28
2019-03-12T15:18:01.771Z,4.78
2019-03-12T15:20:30.185Z,6.17
2019-03-12T15:23:06.267Z,1.85
2019-03-12T15:25:35.854Z,3.22
2019-03-12T15:28:04.437Z,1.55
2019-03-12T15:30:32.840Z,3.90
2019-03-12T15:33:01.370Z,1.12
2019-03-12T15:35:29.854Z,1.98
2019-03-12T15:37:58.292Z,1.82
2019-03-12T15:40:26.935Z,2.87
2019-03-12T15:42:55.802Z,2.95
2019-03-12T15:45:24.303Z,1.85
2019-03-12T15:47:52.851Z,2.87
2019-03-12T15:50:21.307Z,3.25
2019-03-12T15:52:49.745Z,4.35
2019-03-12T15:55:18.177Z,2.42
2019-03-12T15:57:46.706Z,10.90
2019-03-12T16:00:16.208Z,4.80
2019-03-12T16:02:44.677Z,2.92
2019-03-12T16:05:13.207Z,2.80
2019-03-12T16:07:41.855Z,3.95
2019-03-12T16:10:12.794Z,4.50
2019-03-12T16:12:41.282Z,2.05
2019-03-12T16:15:10.939Z,4.70
2019-03-12T16:17:39.376Z,3.60
2019-03-12T16:20:12.955Z,5.15
2019-03-12T16:22:41.385Z,2.15
2019-03-12T16:25:10.118Z,2.47
2019-03-12T16:27:38.557Z,4.10
2019-03-12T16:30:12.429Z,3.45
2019-03-12T16:32:40.848Z,4.45
2019-03-12T16:35:09.601Z,4.42
2019-03-12T16:37:38.063Z,3.77
2019-03-12T16:40:09.708Z,2.62
2019-03-12T16:42:38.172Z,4.00
2019-03-12T16:45:09.896Z,7.42
2019-03-12T16:47:38.357Z,7.95
2019-03-12T16:50:14.777Z,7.22
2019-03-12T16:52:43.246Z,9.73
2019-03-12T16:55:17.998Z,9.60
2019-03-12T16:57:46.518Z,7.05
2019-03-12T17:00:17.771Z,11.78
2019-03-12T17:02:46.206Z,9.38
2019-03-12T17:05:14.738Z,2.58
2019-03-12T17:07:43.222Z,4.72
2019-03-12T17:10:13.920Z,11.55
2019-03-12T17:12:42.428Z,9.33
2019-03-12T17:15:28.610Z,9.30
2019-03-12T17:17:57.092Z,10.63
2019-03-12T17:20:25.585Z,12.53
2019-03-12T17:22:54.072Z,8.60
2019-03-12T17:25:22.767Z,9.83
2019-03-12T17:27:52.075Z,5.53
2019-03-12T17:30:24.534Z,7.97
2019-03-12T17:32:53.035Z,13.10
2019-03-12T17:35:30.241Z,4.28
2019-03-12T17:37:58.767Z,9.75
2019-03-12T17:40:27.276Z,10.98
2019-03-12T17:42:55.819Z,10.58
2019-03-12T17:45:24.265Z,6.85
2019-03-12T17:47:52.735Z,12.37
2019-03-12T17:50:21.215Z,6.20
2019-03-12T17:52:50.830Z,5.70
2019-03-12T17:55:19.478Z,10.32
2019-03-12T17:57:50.776Z,4.15
2019-03-12T18:00:21.805Z,18.57
2019-03-12T18:02:50.367Z,8.23
2019-03-12T18:05:20.672Z,16.80
2019-03-12T18:07:58.512Z,5.85
2019-03-12T18:10:29.860Z,12.60
2019-03-12T18:12:58.313Z,5.20
2019-03-12T18:15:26.771Z,9.88
2019-03-12T18:17:55.287Z,13.30
2019-03-12T18:20:24.251Z,18.87
2019-03-12T18:22:52.797Z,7.03
2019-03-12T18:25:43.425Z,15.78
2019-03-12T18:28:11.961Z,7.10
2019-03-12T18:30:45.251Z,15.80
2019-03-12T18:33:13.839Z,10.38
2019-03-12T18:35:42.397Z,12.55
2019-03-12T18:38:11.062Z,20.70
2019-03-12T18:40:42.664Z,13.08
2019-03-12T18:43:14.828Z,18.52
2019-03-12T18:45:43.417Z,14.23
2019-03-12T18:48:12.019Z,15.35
2019-03-12T18:50:40.501Z,11.65
2019-03-12T18:53:08.995Z,9.28
2019-03-12T18:55:48.958Z,6.50
2019-03-12T18:58:17.523Z,8.28
2019-03-12T19:00:48.956Z,19.62
2019-03-12T19:03:17.778Z,9.68
2019-03-12T19:05:46.257Z,11.38
2019-03-12T19:08:14.766Z,8.45
2019-03-12T19:10:43.578Z,13.62
2019-03-12T19:13:12.008Z,9.10
2019-03-12T19:15:42.809Z,9.93
2019-03-12T19:18:11.498Z,7.25
2019-03-12T19:20:39.997Z,9.05
2019-03-12T19:23:08.480Z,8.93
2019-03-12T19:25:39.298Z,9.33
2019-03-12T19:28:07.778Z,16.67
2019-03-12T19:30:36.234Z,14.38
2019-03-12T19:33:15.559Z,6.37
2019-03-12T19:35:44.015Z,8.60
2019-03-12T19:38:12.459Z,14.55
2019-03-12T19:40:45.315Z,7.67
2019-03-12T19:43:13.778Z,16.35
2019-03-12T19:45:42.346Z,20.48
2019-03-12T19:48:12.477Z,17.73
2019-03-12T19:50:40.970Z,16.17
2019-03-12T19:53:11.075Z,19.52
2019-03-12T19:55:42.714Z,22.30
2019-03-12T19:58:12.821Z,19.80
2019-03-12T20:00:44.464Z,20.60
2019-03-12T20:03:15.281Z,18.65
2019-03-12T20:05:43.314Z,16.00
2019-03-12T20:08:12.012Z,18.87
2019-03-12T20:11:06.574Z,12.85
2019-03-12T20:16:39.371Z,16.80
2019-03-12T20:19:29.211Z,15.40
2019-03-12T20:22:23.433Z,13.38
2019-03-12T20:25:20.507Z,17.05
2019-03-12T20:28:01.055Z,23.77
2019-03-12T20:30:52.359Z,22.52
2019-03-12T20:33:27.255Z,19.05
2019-03-12T20:36:15.806Z,20.55
2019-03-12T20:39:07.099Z,12.68
2019-03-12T20:42:12.168Z,25.92
2019-03-12T20:44:59.310Z,15.80
2019-03-12T20:47:46.172Z,22.48
2019-03-12T20:50:49.075Z,16.82
2019-03-12T20:53:46.342Z,19.52
2019-03-12T20:56:30.064Z,18.30
2019-03-12T20:59:34.774Z,20.65
2019-03-12T21:02:39.597Z,29.85
2019-03-12T21:05:29.513Z,19.45
2019-03-12T21:08:15.838Z,20.92
2019-03-12T21:11:20.203Z,22.07
2019-03-12T21:14:20.499Z,28.80
2019-03-12T21:17:01.449Z,17.80
2019-03-12T21:20:08.563Z,18.23
2019-03-12T21:22:54.759Z,23.35
2019-03-12T21:25:40.918Z,16.37
2019-03-12T21:28:24.283Z,17.95
2019-03-12T21:30:52.773Z,25.10
2019-03-12T21:33:21.532Z,20.32
2019-03-12T21:35:50.337Z,15.28
2019-03-12T21:38:20.861Z,24.70
2019-03-12T21:40:49.479Z,16.35
2019-03-12T21:43:18.136Z,13.65
2019-03-12T21:45:49.340Z,16.05
2019-03-12T21:48:17.803Z,12.35
2019-03-12T21:50:46.224Z,15.28
2019-03-12T21:53:15.183Z,13.53
2019-03-12T21:55:43.760Z,21.57
2019-03-12T21:58:12.333Z,24.87
2019-03-12T22:00:40.870Z,22.98
2019-03-12T22:03:09.337Z,36.00
2019-03-12T22:05:37.900Z,31.68
2019-03-12T22:08:06.357Z,28.23
2019-03-12T22:10:34.825Z,21.25
2019-03-12T22:13:03.275Z,11.08
2019-03-12T22:15:31.743Z,12.35
2019-03-12T22:18:00.215Z,14.53
2019-03-12T22:20:28.683Z,19.98
2019-03-12T22:22:58.790Z,17.12
2019-03-12T22:25:27.319Z,12.58
2019-03-12T22:27:55.810Z,23.02
2019-03-12T22:30:25.875Z,25.05
2019-03-12T22:32:54.403Z,33.90
2019-03-12T22:35:22.854Z,24.92
2019-03-12T22:37:51.321Z,24.30
2019-03-12T22:40:19.749Z,20.08
2019-03-12T22:42:48.208Z,18.40
2019-03-12T22:45:16.730Z,19.12
2019-03-12T22:47:45.249Z,15.90
2019-03-12T22:50:15.082Z,15.15
2019-03-12T22:52:43.663Z,13.88
2019-03-12T22:55:12.972Z,12.40
2019-03-12T22:57:41.475Z,17.85
2019-03-12T23:00:17.530Z,14.63
2019-03-12T23:02:46.114Z,11.38
2019-03-12T23:05:14.701Z,14.13
2019-03-12T23:07:43.156Z,16.00
2019-03-12T23:10:13.005Z,13.60
2019-03-12T23:12:41.507Z,18.95
2019-03-12T23:15:14.931Z,11.33
2019-03-12T23:17:43.367Z,19.40
2019-03-12T23:20:13.970Z,15.48
2019-03-12T23:22:42.471Z,15.75
2019-03-12T23:25:10.998Z,14.53
2019-03-12T23:27:39.444Z,19.60
2019-03-12T23:30:16.228Z,14.70
2019-03-12T23:32:44.685Z,19.75
2019-03-12T23:35:13.463Z,15.45
2019-03-12T23:37:41.970Z,14.75
2019-03-12T23:40:12.825Z,10.18
2019-03-12T23:42:41.347Z,16.32
2019-03-12T23:45:10.842Z,17.12
2019-03-12T23:47:39.297Z,15.32
2019-03-12T23:50:09.767Z,18.80
2019-03-12T23:52:38.245Z,15.55
2019-03-12T23:55:08.507Z,11.18
2019-03-12T23:57:36.966Z,12.30
